• Join FlightAware (Why Join?)
  • Login
  • US Flag 
07:53AM EDT


 

Airport Tracker/Info


-or-


 

Live Flight TrackerFlight Track Log ✈ SWA411 ✈ 01-Aug-2013 ✈ KMCI - KDAL

Flight Track Log - Related Links

Times and Time Zones

All times are in EDT time to prevent confusion due to time zone crossing. See the SWA411 flight status page for this flight to view local times or setup timezone preferences in your user account.

Time Position Orientation Groundspeed Altitude Reporting Facility
EDT Latitude Longitude Course Direction KTS MPH feet Rate Location/Type
11:15PM 39.2794 -94.7467 234° Southwest 148 170 3,300  Level Kansas City Center
11:16PM 39.2283 -94.7953 216° Southwest 243 280 6,600 3,720 Climbing Kansas City Center
11:17PM 39.1653 -94.8478 213° Southwest 277 319 10,900 3,420 Climbing Kansas City Center
11:18PM 39.0581 -94.8794 193° South 360 414 13,700 3,060 Climbing Kansas City Center
11:19PM 38.9489 -94.9100 192° South 410 472 17,200 3,300 Climbing Kansas City Center
11:20PM 38.8375 -94.9408 192° South 421 484 20,600 2,820 Climbing Kansas City Center
11:21PM 38.6997 -94.9789 192° South 452 520 23,000 1,140 Climbing Kansas City Center
11:22PM 38.5797 -95.0133 193° South 459 528 23,000 720 Level Kansas City Center
11:23PM 38.4372 -95.0528 192° South 462 532 24,500 1,680 Climbing Kansas City Center
11:24PM 38.3119 -95.0894 193° South 484 557 26,400 2,100 Climbing Kansas City Center
11:25PM 38.1825 -95.1225 191° South 492 566 28,800 2,340 Climbing Kansas City Center
11:26PM 38.0303 -95.1753 195° South 504 580 31,300 2,460 Climbing Kansas City Center
11:27PM 37.8911 -95.2225 195° South 502 578 33,900 2,220 Climbing Kansas City Center
11:28PM 37.7581 -95.2661 195° South 495 570 36,000 1,800 Climbing Kansas City Center
11:29PM 37.6239 -95.3108 195° South 497 572 37,700 1,800 Climbing Kansas City Center
11:30PM 37.4936 -95.3558 195° South 487 560 39,700 1,140 Climbing Kansas City Center
11:31PM 37.3644 -95.4003 195° South 482 555 40,000 120 Climbing Kansas City Center
11:32PM 37.2339 -95.4450 195° South 485 558 40,000  Level Kansas City Center
11:33PM 37.1017 -95.4869 194° South 487 560 40,000  Level Kansas City Center
11:34PM 36.9428 -95.5419 195° South 493 567 40,000  Level Kansas City Center
11:35PM 36.8083 -95.5872 195° South 498 573 40,000  Level Kansas City Center
11:36PM 36.6753 -95.6331 195° South 500 575 40,000  Level Kansas City Center
11:38PM 36.5333 -95.6800 195° South 500 575 40,000  Level Kansas City Center
11:39PM 36.3994 -95.7214 194° South 496 571 40,000  Level Kansas City Center
11:40PM 36.2786 -95.7619 195° South 495 570 40,000  Level Kansas City Center
11:41PM 36.1425 -95.7714 183° South 506 582 40,000  Level Kansas City Center
11:42PM 35.9781 -95.7169 165° South 512 589 40,000  Level Kansas City Center
11:43PM 35.8408 -95.6722 165° South 512 589 40,000  Level Kansas City Center
11:44PM 35.7056 -95.6294 166° South 507 583 40,000  Level Kansas City Center
11:45PM 35.5686 -95.5853 165° South 507 583 40,000  Level Kansas City Center
11:46PM 35.4289 -95.5603 172° South 509 586 40,000  Level Kansas City Center
11:47PM 35.2900 -95.5483 176° South 501 577 40,000  Level Kansas City Center
11:48PM 35.1500 -95.5331 175° South 503 579 40,000  Level Kansas City Center
11:49PM 35.0108 -95.5189 175° South 501 577 40,000  Level Kansas City Center
11:50PM 34.8725 -95.5039 175° South 499 574 40,000  Level Kansas City Center
11:51PM 34.7158 -95.4878 175° South 498 573 40,000  Level Kansas City Center
11:52PM 34.5433 -95.5453 195° South 476 548 40,000  Level Fort Worth Center
11:53PM 34.4297 -95.6108 205° Southwest 481 554 40,000  Level Fort Worth Center
11:54PM 34.3158 -95.6861 209° Southwest 475 547 40,000 -300 Level Fort Worth Center
11:55PM 34.1978 -95.7561 206° Southwest 475 547 39,400 -1,740 Descending Fort Worth Center
11:56PM 34.0883 -95.8286 209° Southwest 469 540 36,600 -3,540 Descending Fort Worth Center
11:57PM 33.9681 -95.9033 207° Southwest 469 540 32,400 1,680 Descending Fort Worth Center
11:58PM 33.8481 -95.9756 207° Southwest 469 540 40,000 -3,900 Climbing Fort Worth Center
11:59PM 33.7319 -96.0447 206° Southwest 469 540 24,700 -9,600 Descending Fort Worth Center
12:00AM 33.6136 -96.1214 208° Southwest 453 521 20,900 -3,360 Descending Fort Worth Center
12:01AM 33.5161 -96.1803 207° Southwest 447 514 18,000 -3,300 Descending Fort Worth Center
12:02AM 33.4061 -96.2514 208° Southwest 420 483 14,400 -3,420 Descending Fort Worth Center
12:03AM 33.3381 -96.3319 225° Southwest 401 461 11,200 -2,700 Descending Fort Worth Center
12:04AM 33.2833 -96.4000 226° Southwest 384 442 10,000 -780 Descending Dallas / Fort Worth TRACON
12:05AM 33.2167 -96.4833 226° Southwest 314 361 10,000 -720 Level Dallas / Fort Worth TRACON
12:06AM 33.1667 -96.5667 234° Southwest 294 338 8,600 -1,500 Descending Dallas / Fort Worth TRACON
12:07AM 33.1167 -96.6333 228° Southwest 273 314 7,000 -2,100 Descending Dallas / Fort Worth TRACON
12:08AM 33.0667 -96.7000 228° Southwest 267 307 4,400 -2,040 Descending Dallas / Fort Worth TRACON
12:09AM 33.0167 -96.7667 228° Southwest 276 318 3,000 -720 Descending Dallas / Fort Worth TRACON
12:10AM 32.9667 -96.8333 228° Southwest 271 312 3,000  Level Dallas / Fort Worth TRACON
12:11AM 32.9333 -96.8833 232° Southwest 189 217 3,000 -480 Level Dallas / Fort Worth TRACON
12:12AM 32.9000 -96.9167 220° Southwest 124 143 2,100 -960 Descending Dallas / Fort Worth TRACON
12:13AM 32.8667 -96.8833 140° Southeast 116 133 1,000 -1,020 Descending Dallas / Fort Worth TRACON